createdAt,value
2022-10-12T00:04:27.548Z,3.90
2022-10-12T00:09:31.221Z,7.20
2022-10-12T00:14:37.133Z,7.03
2022-10-12T00:19:42.200Z,5.77
2022-10-12T00:24:45.909Z,6.07
2022-10-12T00:29:49.508Z,9.53
2022-10-12T00:34:54.325Z,7.83
2022-10-12T00:39:58.013Z,6.70
2022-10-12T00:45:01.369Z,4.60
2022-10-12T00:50:16.457Z,5.57
2022-10-12T00:55:22.895Z,7.03
2022-10-12T01:00:26.907Z,5.37
2022-10-12T01:05:31.945Z,4.57
2022-10-12T01:10:35.353Z,6.47
2022-10-12T01:15:43.157Z,7.83
2022-10-12T01:20:58.154Z,5.57
2022-10-12T01:26:33.138Z,7.50
2022-10-12T01:31:44.724Z,4.70
2022-10-12T01:36:54.036Z,7.00
2022-10-12T01:42:01.238Z,5.87
2022-10-12T01:47:06.069Z,4.53
2022-10-12T01:52:31.053Z,5.40
2022-10-12T01:57:47.836Z,4.60
2022-10-12T02:03:03.184Z,5.70
2022-10-12T02:08:14.371Z,5.77
2022-10-12T02:13:21.507Z,7.43
2022-10-12T02:18:26.482Z,7.40
2022-10-12T02:23:30.774Z,8.87
2022-10-12T02:28:37.627Z,7.80
2022-10-12T02:33:47.612Z,8.50
2022-10-12T02:38:56.044Z,7.70
2022-10-12T02:44:03.122Z,7.07
2022-10-12T02:49:11.766Z,6.20
2022-10-12T02:54:16.673Z,7.03
2022-10-12T02:59:20.466Z,4.50
2022-10-12T03:04:25.592Z,5.30
2022-10-12T03:09:29.122Z,10.47
2022-10-12T03:14:34.085Z,7.10
2022-10-12T03:19:40.014Z,5.80
2022-10-12T03:24:43.686Z,5.83
2022-10-12T03:29:47.308Z,4.83
2022-10-12T03:34:52.134Z,6.07
2022-10-12T03:39:55.509Z,4.73
2022-10-12T03:44:59.163Z,5.40
2022-10-12T03:50:03.975Z,8.30
2022-10-12T03:55:08.467Z,6.63
2022-10-12T04:00:13.456Z,3.97
2022-10-12T04:05:18.435Z,5.53
2022-10-12T04:10:21.843Z,5.17
2022-10-12T04:15:25.275Z,7.80
2022-10-12T04:20:30.096Z,7.77
2022-10-12T04:25:33.507Z,10.30
2022-10-12T04:30:36.876Z,7.40
2022-10-12T04:35:41.804Z,8.10
2022-10-12T04:40:47.734Z,7.20
2022-10-12T04:45:56.470Z,8.50
2022-10-12T04:51:01.222Z,7.43
2022-10-12T04:56:05.153Z,4.03
2022-10-12T05:01:08.885Z,7.10
2022-10-12T05:06:13.750Z,5.90
2022-10-12T05:11:17.179Z,4.13
2022-10-12T05:16:20.576Z,44.43
2022-10-12T05:21:25.735Z,74.47
2022-10-12T05:26:29.415Z,78.17
2022-10-12T05:31:33.123Z,59.37
2022-10-12T05:36:39.143Z,28.60
2022-10-12T05:41:44.469Z,14.07
2022-10-12T05:46:47.887Z,8.90
2022-10-12T05:51:52.671Z,6.10
2022-10-12T05:56:56.045Z,5.00
2022-10-12T06:01:59.886Z,5.63
2022-10-12T06:07:04.755Z,8.30
2022-10-12T06:12:09.181Z,7.90
2022-10-12T06:17:13.010Z,3.87
2022-10-12T06:22:17.829Z,11.03
2022-10-12T06:27:21.219Z,10.10
2022-10-12T06:32:24.845Z,8.43
2022-10-12T06:37:49.168Z,11.10
2022-10-12T06:42:58.469Z,6.53
2022-10-12T06:48:02.366Z,4.30
2022-10-12T06:53:07.177Z,6.67
2022-10-12T06:58:10.686Z,4.23
2022-10-12T07:03:15.355Z,7.10
2022-10-12T07:08:20.479Z,3.93
2022-10-12T07:13:23.889Z,5.13
2022-10-12T07:18:27.379Z,3.07
2022-10-12T07:23:34.044Z,3.50
2022-10-12T07:28:39.208Z,4.83
2022-10-12T07:33:42.601Z,6.97
2022-10-12T07:38:48.904Z,6.90
2022-10-12T07:43:56.791Z,5.57
2022-10-12T07:49:00.526Z,3.77
2022-10-12T07:54:05.467Z,3.53
2022-10-12T07:59:09.039Z,5.03
2022-10-12T08:04:13.044Z,5.30
2022-10-12T08:09:18.512Z,5.53
2022-10-12T08:14:22.181Z,3.60
2022-10-12T08:19:25.526Z,6.13
2022-10-12T08:24:30.321Z,3.23
2022-10-12T08:29:34.036Z,7.70
2022-10-12T08:34:37.531Z,4.35
2022-10-12T08:39:42.851Z,6.27
2022-10-12T08:45:10.227Z,7.65
2022-10-12T08:50:19.681Z,6.13
2022-10-12T08:55:30.236Z,12.30
2022-10-12T09:00:36.246Z,7.28
2022-10-12T09:05:45.021Z,4.32
2022-10-12T09:11:00.105Z,7.05
2022-10-12T09:16:07.710Z,6.50
2022-10-12T09:21:17.777Z,2.50
2022-10-12T09:26:34.714Z,5.07
2022-10-12T09:31:53.516Z,5.43
2022-10-12T09:36:57.094Z,4.65
2022-10-12T09:42:02.760Z,2.70
2022-10-12T09:47:08.004Z,8.20
2022-10-12T09:52:13.062Z,6.00
2022-10-12T09:57:24.004Z,4.35
2022-10-12T10:02:28.527Z,2.25
2022-10-12T10:07:34.629Z,4.00
2022-10-12T10:12:45.462Z,5.38
2022-10-12T10:17:53.829Z,6.30
2022-10-12T10:22:57.959Z,4.88
2022-10-12T10:28:25.250Z,5.18
2022-10-12T10:33:32.122Z,5.28
2022-10-12T10:38:55.811Z,4.25
2022-10-12T10:44:01.335Z,3.65
2022-10-12T10:49:08.242Z,6.17
2022-10-12T10:54:17.217Z,3.38
2022-10-12T10:59:30.523Z,4.57
2022-10-12T11:04:38.763Z,6.75
2022-10-12T11:09:45.351Z,3.97
2022-10-12T11:14:53.454Z,3.92
2022-10-12T11:20:07.418Z,4.70
2022-10-12T11:25:19.622Z,6.33
2022-10-12T11:30:27.614Z,6.20
2022-10-12T11:35:35.854Z,4.07
2022-10-12T11:41:34.276Z,2.95
2022-10-12T11:46:18.321Z,4.33
2022-10-12T11:51:21.965Z,4.00
2022-10-12T11:56:28.901Z,3.40
2022-10-12T12:01:48.764Z,4.95
2022-10-12T12:07:24.943Z,3.85
2022-10-12T12:12:30.305Z,4.28
2022-10-12T12:17:36.272Z,4.38
2022-10-12T12:22:51.100Z,2.88
2022-10-12T12:27:57.646Z,2.28
2022-10-12T12:33:04.680Z,2.33
2022-10-12T12:38:25.775Z,2.20
2022-10-12T12:44:03.435Z,3.75
2022-10-12T12:49:27.386Z,4.20
2022-10-12T12:54:31.387Z,4.03
2022-10-12T13:00:12.173Z,6.85
2022-10-12T13:05:43.847Z,12.98
2022-10-12T13:11:01.899Z,3.35
2022-10-12T13:17:09.526Z,3.88
2022-10-12T13:21:51.683Z,3.58
2022-10-12T13:26:59.718Z,2.15
2022-10-12T13:32:12.457Z,2.72
2022-10-12T13:37:18.929Z,3.60
2022-10-12T13:42:28.661Z,2.58
2022-10-12T13:47:34.385Z,2.55
2022-10-12T13:52:39.444Z,3.33
2022-10-12T13:57:46.661Z,4.40
2022-10-12T14:02:56.226Z,5.78
2022-10-12T14:08:07.099Z,3.28
2022-10-12T14:13:15.591Z,3.65
2022-10-12T14:18:37.598Z,2.15
2022-10-12T14:23:47.393Z,2.47
2022-10-12T14:28:51.162Z,5.05
2022-10-12T14:33:55.302Z,3.13
2022-10-12T14:39:14.466Z,9.48
2022-10-12T14:44:20.057Z,3.47
2022-10-12T14:49:25.570Z,2.07
2022-10-12T14:54:30.645Z,7.35
2022-10-12T14:59:34.075Z,4.45
2022-10-12T15:04:37.513Z,5.13
2022-10-12T15:09:42.308Z,3.72
2022-10-12T15:14:46.177Z,1.93
2022-10-12T15:19:51.042Z,19.73
2022-10-12T15:24:56.579Z,94.70
2022-10-12T15:30:00.283Z,98.72
2022-10-12T15:35:15.003Z,23.63
2022-10-12T15:40:22.030Z,19.53
2022-10-12T15:45:27.769Z,7.60
2022-10-12T15:50:37.248Z,3.63
2022-10-12T15:55:42.692Z,3.97
2022-10-12T16:00:46.188Z,3.40
2022-10-12T16:05:49.937Z,2.47
2022-10-12T16:10:54.778Z,2.93
2022-10-12T16:15:58.334Z,5.27
2022-10-12T16:21:01.739Z,4.53
2022-10-12T16:26:09.026Z,2.90
2022-10-12T16:31:15.458Z,2.87
2022-10-12T16:36:19.166Z,2.00
2022-10-12T16:41:24.400Z,2.07
2022-10-12T16:46:27.822Z,2.17
2022-10-12T16:51:31.259Z,1.93
2022-10-12T16:56:39.337Z,2.17
2022-10-12T17:01:43.425Z,2.93
2022-10-12T17:06:46.850Z,1.53
2022-10-12T17:11:51.653Z,1.93
2022-10-12T17:16:57.546Z,1.27
2022-10-12T17:22:04.420Z,1.47
2022-10-12T17:27:10.741Z,1.70
2022-10-12T17:32:14.476Z,2.80
2022-10-12T17:37:18.970Z,3.67
2022-10-12T17:42:23.770Z,3.73
2022-10-12T17:47:27.188Z,3.00
2022-10-12T17:52:30.926Z,2.67
2022-10-12T17:57:38.436Z,3.23
2022-10-12T18:02:41.847Z,4.70
2022-10-12T18:07:45.255Z,5.73
2022-10-12T18:12:50.040Z,16.60
2022-10-12T18:17:54.732Z,13.93
2022-10-12T18:22:58.565Z,28.20
2022-10-12T18:28:03.489Z,27.43
2022-10-12T18:33:06.913Z,16.30
2022-10-12T18:38:10.767Z,15.13
2022-10-12T18:43:16.195Z,19.83
2022-10-12T18:48:19.615Z,16.60
2022-10-12T18:53:27.255Z,14.33
2022-10-12T18:58:32.457Z,11.10
2022-10-12T19:03:35.844Z,13.23
2022-10-12T19:08:39.419Z,11.20
2022-10-12T19:13:44.718Z,10.47
2022-10-12T19:18:48.182Z,10.90
2022-10-12T19:23:51.579Z,11.47
2022-10-12T19:28:57.656Z,12.13
2022-10-12T19:34:02.719Z,11.67
2022-10-12T19:39:09.007Z,11.13
2022-10-12T19:44:14.225Z,11.93
2022-10-12T19:49:19.533Z,11.43
2022-10-12T19:54:22.903Z,10.13
2022-10-12T19:59:27.746Z,9.03
2022-10-12T20:04:31.536Z,9.67
2022-10-12T20:09:34.911Z,11.13
2022-10-12T20:14:40.102Z,9.63
2022-10-12T20:19:43.538Z,10.80
2022-10-12T20:24:47.052Z,9.57
2022-10-12T20:29:53.009Z,11.63
2022-10-12T20:34:57.240Z,8.67
2022-10-12T20:40:00.896Z,7.43
2022-10-12T20:45:06.404Z,8.57
2022-10-12T20:50:10.861Z,9.33
2022-10-12T20:55:14.279Z,9.67
2022-10-12T21:00:19.276Z,8.30
2022-10-12T21:05:22.986Z,9.10
2022-10-12T21:10:26.431Z,8.97
2022-10-12T21:15:31.181Z,9.40
2022-10-12T21:20:34.596Z,8.67
2022-10-12T21:25:38.061Z,8.23
2022-10-12T21:30:43.034Z,9.73
2022-10-12T21:35:46.565Z,7.93
2022-10-12T21:40:50.251Z,11.30
2022-10-12T21:45:55.130Z,8.80
2022-10-12T21:50:58.872Z,8.43
2022-10-12T21:56:06.678Z,8.63
2022-10-12T22:01:14.263Z,8.93
2022-10-12T22:06:19.600Z,8.27
2022-10-12T22:11:27.273Z,8.10
2022-10-12T22:16:32.899Z,8.97
2022-10-12T22:21:37.764Z,10.23
2022-10-12T22:26:41.793Z,7.23
2022-10-12T22:31:46.902Z,7.37
2022-10-12T22:36:52.048Z,7.23
2022-10-12T22:42:00.869Z,7.33
2022-10-12T22:47:06.072Z,7.87
2022-10-12T22:52:09.409Z,5.50
2022-10-12T22:57:13.151Z,7.40
2022-10-12T23:02:18.122Z,6.67
2022-10-12T23:07:21.979Z,8.93
2022-10-12T23:12:25.424Z,7.47
2022-10-12T23:17:30.364Z,6.70
2022-10-12T23:22:33.810Z,6.83
2022-10-12T23:27:37.458Z,6.50
2022-10-12T23:32:42.286Z,7.17
2022-10-12T23:37:45.709Z,5.60
2022-10-12T23:42:49.148Z,8.67
2022-10-12T23:47:54.199Z,9.30
2022-10-12T23:52:57.593Z,8.33
2022-10-12T23:58:01.145Z,6.83
